Time;durP1;ratioP1;P1;durP2;ratioP2;P2;SDS_P1;SDS_P2;PMS_P1;PMS_P2;Temp;Humidity;BMP_temperature;BMP_pressure;BME280_temperature;BME280_humidity;BME280_pressure;Samples;Min_cycle;Max_cycle;Signal;HPM_P1;HPM_P2
2023/08/11 00:00:55;;;;;;;8.35;7.20;;;;;;;;;;4992892;28;20190;-69
2023/08/11 00:03:20;;;;;;;12.80;7.47;;;;;;;;;;4992010;28;20453;-69
2023/08/11 00:05:45;;;;;;;10.52;7.10;;;;;;;;;;4987780;28;20183;-69
2023/08/11 00:08:13;;;;;;;9.70;7.40;;;;;;;;;;4990042;28;20237;-69
2023/08/11 00:10:38;;;;;;;11.02;7.43;;;;;;;;;;4969154;28;20219;-69
2023/08/11 00:13:06;;;;;;;10.98;7.95;;;;;;;;;;4990872;28;20706;-69
2023/08/11 00:15:31;;;;;;;7.25;6.47;;;;;;;;;;4985837;28;20600;-70
2023/08/11 00:17:57;;;;;;;9.82;7.90;;;;;;;;;;4982049;28;20183;-69
2023/08/11 00:20:23;;;;;;;10.00;6.85;;;;;;;;;;4981073;28;20207;-69
2023/08/11 00:22:49;;;;;;;11.32;8.27;;;;;;;;;;4981559;28;20188;-69
2023/08/11 00:25:14;;;;;;;9.40;7.30;;;;;;;;;;4984109;28;20207;-69
2023/08/11 00:27:39;;;;;;;10.75;7.88;;;;;;;;;;4989103;28;20187;-69
2023/08/11 00:30:05;;;;;;;8.02;7.00;;;;;;;;;;4989864;28;20229;-69
2023/08/11 00:32:30;;;;;;;9.27;7.47;;;;;;;;;;4992075;28;20423;-69
2023/08/11 00:34:56;;;;;;;12.25;8.30;;;;;;;;;;4991296;28;20218;-69
2023/08/11 00:37:21;;;;;;;10.95;7.75;;;;;;;;;;4970290;28;20186;-69
2023/08/11 00:39:46;;;;;;;10.45;7.53;;;;;;;;;;4990574;28;20227;-69
2023/08/11 00:42:12;;;;;;;11.88;8.30;;;;;;;;;;4975459;28;20184;-69
2023/08/11 00:44:37;;;;;;;11.32;7.90;;;;;;;;;;4989399;28;20198;-70
2023/08/11 00:47:02;;;;;;;10.13;7.85;;;;;;;;;;4990254;28;20227;-69
2023/08/11 00:49:28;;;;;;;7.93;6.75;;;;;;;;;;4989622;28;20214;-69
2023/08/11 00:51:53;;;;;;;9.05;7.22;;;;;;;;;;4972283;28;20183;-69
2023/08/11 00:54:18;;;;;;;11.68;8.23;;;;;;;;;;4988398;28;20949;-70
2023/08/11 00:56:45;;;;;;;12.57;8.55;;;;;;;;;;4987461;28;20202;-69
2023/08/11 00:59:15;;;;;;;10.27;8.07;;;;;;;;;;4986926;28;20207;-69
2023/08/11 01:01:40;;;;;;;10.20;8.07;;;;;;;;;;4989667;28;20187;-69
2023/08/11 01:04:06;;;;;;;11.88;9.45;;;;;;;;;;4987500;28;20552;-69
2023/08/11 01:06:34;;;;;;;13.23;9.52;;;;;;;;;;4973034;28;20188;-69
2023/08/11 01:09:05;;;;;;;14.75;11.57;;;;;;;;;;4986605;28;20200;-69
2023/08/11 01:11:31;;;;;;;11.30;10.10;;;;;;;;;;4986375;28;20221;-70
2023/08/11 01:14:05;;;;;;;12.23;9.23;;;;;;;;;;4989753;28;20179;-69
2023/08/11 01:16:32;;;;;;;13.85;10.90;;;;;;;;;;4989241;28;20236;-69
2023/08/11 01:18:58;;;;;;;9.20;8.13;;;;;;;;;;4987325;28;20199;-69
2023/08/11 01:21:24;;;;;;;12.57;9.73;;;;;;;;;;4989704;28;20641;-69
2023/08/11 01:23:49;;;;;;;11.70;8.77;;;;;;;;;;4989664;28;20183;-69
2023/08/11 01:26:15;;;;;;;13.38;9.35;;;;;;;;;;4985754;28;20194;-69
2023/08/11 01:28:41;;;;;;;11.20;8.73;;;;;;;;;;4985632;28;20241;-70
2023/08/11 01:31:08;;;;;;;11.93;9.18;;;;;;;;;;4988952;28;20220;-70
2023/08/11 01:33:33;;;;;;;17.75;10.88;;;;;;;;;;4989418;28;20282;-69
2023/08/11 01:35:58;;;;;;;12.25;9.23;;;;;;;;;;4990265;28;20198;-70
2023/08/11 01:38:24;;;;;;;10.43;8.93;;;;;;;;;;4988992;28;20237;-69
2023/08/11 01:40:49;;;;;;;13.35;10.77;;;;;;;;;;4969077;28;20221;-69
2023/08/11 01:43:15;;;;;;;11.10;9.57;;;;;;;;;;4989537;28;21036;-69
2023/08/11 01:45:43;;;;;;;11.45;9.68;;;;;;;;;;4989071;28;20195;-70
2023/08/11 01:48:08;;;;;;;12.88;9.93;;;;;;;;;;4989900;28;20657;-70
2023/08/11 01:50:34;;;;;;;12.50;9.10;;;;;;;;;;4985223;28;20242;-70
2023/08/11 01:52:59;;;;;;;14.25;9.85;;;;;;;;;;4990158;28;20873;-70
2023/08/11 01:55:25;;;;;;;12.60;9.90;;;;;;;;;;4988957;28;20252;-70
2023/08/11 01:57:50;;;;;;;14.02;10.20;;;;;;;;;;4984405;28;20231;-70
2023/08/11 02:00:16;;;;;;;13.38;10.20;;;;;;;;;;4970188;28;20281;-70
2023/08/11 02:02:43;;;;;;;24.48;11.75;;;;;;;;;;4965554;28;20632;-68
2023/08/11 02:05:11;;;;;;;12.57;9.88;;;;;;;;;;4986115;28;20196;-68
2023/08/11 02:07:36;;;;;;;11.15;8.35;;;;;;;;;;4986482;28;20184;-69
2023/08/11 02:10:02;;;;;;;13.13;9.68;;;;;;;;;;4987273;28;20207;-69
2023/08/11 02:12:27;;;;;;;13.15;9.68;;;;;;;;;;4969670;28;20190;-69
2023/08/11 02:14:53;;;;;;;13.93;10.15;;;;;;;;;;4987037;28;20574;-68
2023/08/11 02:17:18;;;;;;;10.93;9.38;;;;;;;;;;4986475;28;20654;-68
2023/08/11 02:19:45;;;;;;;11.07;8.93;;;;;;;;;;4986897;28;20234;-69
2023/08/11 02:22:10;;;;;;;13.25;9.23;;;;;;;;;;4969150;28;20248;-69
2023/08/11 02:24:35;;;;;;;10.30;8.80;;;;;;;;;;4967021;28;20670;-69
2023/08/11 02:27:01;;;;;;;10.32;9.23;;;;;;;;;;4989221;28;20614;-69
2023/08/11 02:29:26;;;;;;;12.90;10.80;;;;;;;;;;4967836;28;20220;-69
2023/08/11 02:31:51;;;;;;;13.05;10.40;;;;;;;;;;4986729;28;20567;-69
2023/08/11 02:34:16;;;;;;;15.20;10.45;;;;;;;;;;4987979;28;20678;-69
2023/08/11 02:36:42;;;;;;;11.43;9.95;;;;;;;;;;4969517;28;20861;-69
2023/08/11 02:39:08;;;;;;;16.67;10.10;;;;;;;;;;4962298;22;1143317;-68
2023/08/11 02:41:33;;;;;;;11.05;8.13;;;;;;;;;;4984655;28;20348;-68
2023/08/11 02:43:58;;;;;;;12.43;10.23;;;;;;;;;;4987556;28;21049;-68
2023/08/11 02:46:23;;;;;;;15.15;10.70;;;;;;;;;;4971127;28;20195;-68
2023/08/11 02:48:49;;;;;;;14.50;11.13;;;;;;;;;;4984270;28;20188;-67
2023/08/11 02:51:14;;;;;;;18.15;11.90;;;;;;;;;;4973024;28;20526;-66
2023/08/11 02:53:39;;;;;;;14.65;10.60;;;;;;;;;;4976679;28;20238;-67
2023/08/11 02:56:07;;;;;;;14.05;11.48;;;;;;;;;;4974088;28;21862;-67
2023/08/11 02:58:32;;;;;;;12.93;10.95;;;;;;;;;;4972726;28;20346;-67
2023/08/11 03:00:57;;;;;;;15.85;12.02;;;;;;;;;;4977594;28;20677;-67
2023/08/11 03:03:23;;;;;;;12.45;9.95;;;;;;;;;;4955628;28;20234;-67
2023/08/11 03:05:48;;;;;;;15.45;11.38;;;;;;;;;;4975970;28;20187;-68
2023/08/11 03:08:13;;;;;;;12.13;10.18;;;;;;;;;;4976117;28;20187;-67
2023/08/11 03:10:39;;;;;;;15.15;11.63;;;;;;;;;;4975952;28;20211;-67
2023/08/11 03:13:04;;;;;;;13.45;11.20;;;;;;;;;;4979523;28;20230;-67
2023/08/11 03:15:29;;;;;;;15.02;10.75;;;;;;;;;;4964389;28;20221;-67
2023/08/11 03:17:56;;;;;;;19.95;14.10;;;;;;;;;;4984303;28;20185;-67
2023/08/11 03:20:23;;;;;;;15.60;12.25;;;;;;;;;;4979831;28;20204;-67
2023/08/11 03:22:48;;;;;;;16.85;13.73;;;;;;;;;;4981941;28;20188;-67
2023/08/11 03:25:13;;;;;;;17.20;13.43;;;;;;;;;;4981662;28;20725;-67
2023/08/11 03:27:42;;;;;;;17.63;13.10;;;;;;;;;;4983362;28;20185;-68
2023/08/11 03:30:08;;;;;;;16.70;14.20;;;;;;;;;;4960785;28;20211;-69
2023/08/11 03:32:33;;;;;;;16.42;13.40;;;;;;;;;;4966122;28;21065;-68
2023/08/11 03:34:59;;;;;;;18.45;14.00;;;;;;;;;;4960977;28;21410;-67
2023/08/11 03:37:24;;;;;;;20.98;14.75;;;;;;;;;;4984013;28;20569;-68
2023/08/11 03:39:49;;;;;;;17.75;14.68;;;;;;;;;;4980804;28;20225;-68
2023/08/11 03:42:14;;;;;;;17.52;13.73;;;;;;;;;;4981182;28;20194;-67
2023/08/11 03:44:39;;;;;;;15.70;13.95;;;;;;;;;;4979925;28;20717;-67
2023/08/11 03:47:05;;;;;;;19.65;13.52;;;;;;;;;;4983915;28;20184;-67
2023/08/11 03:49:31;;;;;;;18.42;13.65;;;;;;;;;;4965010;28;20701;-67
2023/08/11 03:51:57;;;;;;;15.57;12.60;;;;;;;;;;4985042;28;20199;-68
2023/08/11 03:54:22;;;;;;;17.23;13.55;;;;;;;;;;4983941;28;20862;-68
2023/08/11 03:56:47;;;;;;;19.63;15.05;;;;;;;;;;4979132;28;20256;-67
2023/08/11 03:59:13;;;;;;;17.40;14.02;;;;;;;;;;4982211;28;20199;-67
2023/08/11 04:01:38;;;;;;;16.42;14.02;;;;;;;;;;4983271;28;20638;-67
2023/08/11 04:04:04;;;;;;;18.02;12.90;;;;;;;;;;4981983;28;20606;-67
2023/08/11 04:06:32;;;;;;;19.73;16.00;;;;;;;;;;4982645;28;20179;-68
2023/08/11 04:08:58;;;;;;;20.38;15.48;;;;;;;;;;4983204;28;21297;-67
2023/08/11 04:11:24;;;;;;;20.10;15.50;;;;;;;;;;4984117;28;20195;-67
2023/08/11 04:13:49;;;;;;;21.02;16.30;;;;;;;;;;4978883;28;20180;-67
2023/08/11 04:16:14;;;;;;;19.58;16.33;;;;;;;;;;4965930;28;20198;-67
2023/08/11 04:18:40;;;;;;;18.73;14.98;;;;;;;;;;4959317;28;20237;-67
2023/08/11 04:21:05;;;;;;;22.00;16.00;;;;;;;;;;4982446;28;20232;-67
2023/08/11 04:23:30;;;;;;;19.08;15.75;;;;;;;;;;4980702;28;21002;-67
2023/08/11 04:25:55;;;;;;;17.90;13.68;;;;;;;;;;4961039;28;20684;-67
2023/08/11 04:28:21;;;;;;;17.58;15.27;;;;;;;;;;4979511;28;20332;-69
2023/08/11 04:30:47;;;;;;;20.90;15.98;;;;;;;;;;4979200;28;20307;-68
2023/08/11 04:33:12;;;;;;;21.77;16.15;;;;;;;;;;4977280;28;20184;-68
2023/08/11 04:35:38;;;;;;;24.35;16.42;;;;;;;;;;4973132;28;20186;-66
2023/08/11 04:38:04;;;;;;;21.85;16.60;;;;;;;;;;4974656;28;20190;-67
2023/08/11 04:40:29;;;;;;;19.55;16.25;;;;;;;;;;4977685;28;20222;-67
2023/08/11 04:42:55;;;;;;;24.00;16.95;;;;;;;;;;4978358;28;20184;-67
2023/08/11 04:45:20;;;;;;;18.10;14.82;;;;;;;;;;4976490;28;20192;-66
2023/08/11 04:47:45;;;;;;;24.92;16.50;;;;;;;;;;4978992;28;20188;-67
2023/08/11 04:50:13;;;;;;;22.35;17.58;;;;;;;;;;4979511;28;20211;-67
2023/08/11 04:52:39;;;;;;;25.73;17.50;;;;;;;;;;4978988;28;20217;-67
2023/08/11 04:55:05;;;;;;;26.25;18.98;;;;;;;;;;4980155;28;20350;-67
2023/08/11 04:57:30;;;;;;;23.27;16.83;;;;;;;;;;4978965;28;20282;-67
2023/08/11 04:59:55;;;;;;;25.00;18.20;;;;;;;;;;4980844;28;20631;-67
2023/08/11 05:02:20;;;;;;;21.88;17.60;;;;;;;;;;4978446;28;20632;-69
2023/08/11 05:04:46;;;;;;;23.73;17.55;;;;;;;;;;4976517;28;20947;-67
2023/08/11 05:07:11;;;;;;;24.90;17.38;;;;;;;;;;4975149;28;20240;-67
2023/08/11 05:09:36;;;;;;;21.38;17.05;;;;;;;;;;4961269;28;20261;-67
2023/08/11 05:12:02;;;;;;;24.40;17.77;;;;;;;;;;4977715;28;20184;-67
2023/08/11 05:14:27;;;;;;;21.65;18.35;;;;;;;;;;4979131;28;20228;-67
2023/08/11 05:16:52;;;;;;;20.17;15.88;;;;;;;;;;4977925;28;20194;-67
2023/08/11 05:19:17;;;;;;;23.70;18.63;;;;;;;;;;4975657;28;20203;-67
2023/08/11 05:21:43;;;;;;;21.17;17.15;;;;;;;;;;4977908;28;20905;-68
2023/08/11 05:24:10;;;;;;;25.38;18.65;;;;;;;;;;4976744;28;20323;-67
2023/08/11 05:26:35;;;;;;;20.95;16.90;;;;;;;;;;4977370;28;20226;-67
2023/08/11 05:29:01;;;;;;;25.33;17.40;;;;;;;;;;4972417;28;20286;-67
2023/08/11 05:31:26;;;;;;;22.58;16.05;;;;;;;;;;4975660;28;20192;-67
2023/08/11 05:33:52;;;;;;;22.92;19.27;;;;;;;;;;4962286;28;20669;-67
2023/08/11 05:36:18;;;;;;;19.05;16.15;;;;;;;;;;4972142;28;20730;-67
2023/08/11 05:38:43;;;;;;;27.00;17.80;;;;;;;;;;4957579;28;20183;-67
2023/08/11 05:41:09;;;;;;;18.73;15.68;;;;;;;;;;4977442;28;20204;-67
2023/08/11 05:43:36;;;;;;;23.95;17.73;;;;;;;;;;4975644;28;20190;-67
2023/08/11 05:46:01;;;;;;;19.48;15.95;;;;;;;;;;4962586;28;20210;-67
2023/08/11 05:48:26;;;;;;;25.77;16.77;;;;;;;;;;4976454;28;20188;-67
2023/08/11 05:50:53;;;;;;;32.25;18.42;;;;;;;;;;4976814;28;20219;-67
2023/08/11 05:53:18;;;;;;;22.70;17.80;;;;;;;;;;4977434;28;20314;-67
2023/08/11 05:55:43;;;;;;;19.85;15.55;;;;;;;;;;4979662;28;20302;-67
2023/08/11 05:58:08;;;;;;;19.73;15.75;;;;;;;;;;4958824;28;20215;-67
2023/08/11 06:00:34;;;;;;;21.38;16.38;;;;;;;;;;4969558;28;20870;-67
2023/08/11 06:02:59;;;;;;;21.23;15.00;;;;;;;;;;4978353;28;20187;-67
2023/08/11 06:05:24;;;;;;;16.98;14.30;;;;;;;;;;4975744;28;20762;-67
2023/08/11 06:07:50;;;;;;;20.98;15.18;;;;;;;;;;4972225;28;20183;-67
2023/08/11 06:10:15;;;;;;;18.10;14.70;;;;;;;;;;4943793;28;20996;-67
2023/08/11 06:12:40;;;;;;;18.90;14.25;;;;;;;;;;4951363;28;20803;-68
2023/08/11 06:15:06;;;;;;;17.15;14.02;;;;;;;;;;4971238;28;20188;-68
2023/08/11 06:17:31;;;;;;;23.60;15.35;;;;;;;;;;4973698;28;20199;-68
2023/08/11 06:19:57;;;;;;;20.23;14.88;;;;;;;;;;4974558;28;20204;-68
2023/08/11 06:22:23;;;;;;;19.63;13.02;;;;;;;;;;4960082;28;20187;-68
2023/08/11 06:24:48;;;;;;;18.58;14.65;;;;;;;;;;4978780;28;20183;-68
2023/08/11 06:27:14;;;;;;;17.17;13.48;;;;;;;;;;4975719;28;20239;-68
2023/08/11 06:29:39;;;;;;;15.60;13.57;;;;;;;;;;4978293;28;20269;-68
2023/08/11 06:32:04;;;;;;;19.95;13.40;;;;;;;;;;4978027;28;21025;-68
2023/08/11 06:34:29;;;;;;;16.30;13.93;;;;;;;;;;4977496;28;20179;-68
2023/08/11 06:36:54;;;;;;;16.83;13.25;;;;;;;;;;4977383;28;20180;-68
2023/08/11 06:39:20;;;;;;;16.58;12.90;;;;;;;;;;4960465;28;20230;-68
2023/08/11 06:41:45;;;;;;;17.25;12.63;;;;;;;;;;4975356;28;20188;-68
2023/08/11 06:44:10;;;;;;;13.10;11.10;;;;;;;;;;4974444;28;20200;-67
2023/08/11 06:46:35;;;;;;;14.45;11.57;;;;;;;;;;4975319;28;20187;-68
2023/08/11 06:49:01;;;;;;;17.17;11.35;;;;;;;;;;4970669;28;20703;-67
2023/08/11 06:51:26;;;;;;;14.27;11.02;;;;;;;;;;4958538;28;20630;-68
2023/08/11 06:53:51;;;;;;;12.98;10.18;;;;;;;;;;4977820;28;20187;-67
2023/08/11 06:56:17;;;;;;;19.88;10.77;;;;;;;;;;4976256;28;20874;-68
2023/08/11 06:58:42;;;;;;;13.07;10.18;;;;;;;;;;4978232;28;20653;-67
2023/08/11 07:01:07;;;;;;;14.35;10.50;;;;;;;;;;4972378;28;20330;-67
2023/08/11 07:03:33;;;;;;;17.70;9.88;;;;;;;;;;4955190;28;20641;-68
2023/08/11 07:05:59;;;;;;;16.98;10.93;;;;;;;;;;4968749;28;20274;-67
2023/08/11 07:08:24;;;;;;;20.45;9.75;;;;;;;;;;4974823;28;20191;-67
2023/08/11 07:10:49;;;;;;;14.45;9.80;;;;;;;;;;4975520;28;20274;-67
2023/08/11 07:13:14;;;;;;;15.50;8.77;;;;;;;;;;4972440;28;20183;-68
2023/08/11 07:15:43;;;;;;;15.18;9.25;;;;;;;;;;4958188;28;20179;-67
2023/08/11 07:18:09;;;;;;;10.73;9.23;;;;;;;;;;4975747;28;20187;-68
2023/08/11 07:20:34;;;;;;;15.82;9.00;;;;;;;;;;4976125;28;20594;-68
2023/08/11 07:23:00;;;;;;;11.13;8.73;;;;;;;;;;4957009;28;20183;-68
2023/08/11 07:25:25;;;;;;;9.65;7.50;;;;;;;;;;4956682;28;20666;-68
2023/08/11 07:27:50;;;;;;;9.40;7.90;;;;;;;;;;4976867;28;20195;-68
2023/08/11 07:30:15;;;;;;;12.47;7.20;;;;;;;;;;4958405;28;20238;-68
2023/08/11 07:32:41;;;;;;;10.03;7.10;;;;;;;;;;4977548;28;20433;-68
2023/08/11 07:35:06;;;;;;;10.95;7.53;;;;;;;;;;4975430;28;20509;-68
2023/08/11 07:37:32;;;;;;;9.73;6.90;;;;;;;;;;4976104;28;20678;-66
2023/08/11 07:39:57;;;;;;;12.48;7.60;;;;;;;;;;4977980;28;20651;-67
2023/08/11 07:42:22;;;;;;;8.75;6.00;;;;;;;;;;4972680;28;20827;-67
2023/08/11 07:44:47;;;;;;;13.52;6.57;;;;;;;;;;4977630;28;20213;-67
2023/08/11 07:47:13;;;;;;;9.35;6.20;;;;;;;;;;4977692;28;20249;-67
2023/08/11 07:49:38;;;;;;;8.20;6.22;;;;;;;;;;4950046;28;20274;-68
2023/08/11 07:52:03;;;;;;;10.23;6.72;;;;;;;;;;4978111;28;20182;-66
2023/08/11 07:54:29;;;;;;;11.55;6.10;;;;;;;;;;4955029;28;20184;-66
2023/08/11 07:56:54;;;;;;;8.38;5.45;;;;;;;;;;4956364;28;20179;-67
2023/08/11 07:59:19;;;;;;;11.95;7.30;;;;;;;;;;4958278;28;20667;-66
2023/08/11 08:01:44;;;;;;;11.88;5.95;;;;;;;;;;4959014;28;20194;-65
2023/08/11 08:04:10;;;;;;;11.38;6.07;;;;;;;;;;4962003;28;20249;-67
2023/08/11 08:06:43;;;;;;;10.57;6.65;;;;;;;;;;4957203;28;20176;-66
2023/08/11 08:09:11;;;;;;;16.00;6.05;;;;;;;;;;4959488;28;20315;-66
2023/08/11 08:11:36;;;;;;;16.33;5.88;;;;;;;;;;4959152;28;20976;-67
2023/08/11 08:14:02;;;;;;;9.43;5.88;;;;;;;;;;4961181;28;21534;-66
2023/08/11 08:16:27;;;;;;;9.48;6.28;;;;;;;;;;4958607;28;20291;-66
2023/08/11 08:18:52;;;;;;;7.72;5.10;;;;;;;;;;4961850;28;21500;-66
2023/08/11 08:21:17;;;;;;;7.43;4.93;;;;;;;;;;4958157;28;20862;-66
2023/08/11 08:23:42;;;;;;;9.70;4.57;;;;;;;;;;4957729;28;20799;-68
2023/08/11 08:26:09;;;;;;;8.13;4.28;;;;;;;;;;4940779;28;20572;-67
2023/08/11 08:28:36;;;;;;;7.15;4.28;;;;;;;;;;4947378;28;20179;-67
2023/08/11 08:31:01;;;;;;;6.50;4.43;;;;;;;;;;4957179;28;20215;-67
2023/08/11 08:33:27;;;;;;;8.75;5.63;;;;;;;;;;4957101;28;21537;-67
2023/08/11 08:35:52;;;;;;;6.70;4.78;;;;;;;;;;4941659;28;20184;-66
2023/08/11 08:38:17;;;;;;;6.60;4.60;;;;;;;;;;4957818;28;20605;-65
2023/08/11 08:40:42;;;;;;;6.13;4.67;;;;;;;;;;4993426;23;21133;-68
2023/08/11 08:43:08;;;;;;;6.40;4.32;;;;;;;;;;4991616;28;21147;-71
2023/08/11 08:45:34;;;;;;;4.47;3.92;;;;;;;;;;4993785;28;20347;-69
2023/08/11 08:48:01;;;;;;;5.70;3.88;;;;;;;;;;4990211;28;20215;-69
2023/08/11 08:50:28;;;;;;;6.32;4.22;;;;;;;;;;4991557;28;20837;-69
2023/08/11 08:52:53;;;;;;;6.45;3.58;;;;;;;;;;4991250;28;20281;-69
2023/08/11 08:55:18;;;;;;;10.55;3.55;;;;;;;;;;4993329;28;20182;-68
2023/08/11 08:57:45;;;;;;;5.80;3.97;;;;;;;;;;4991658;28;20842;-69
2023/08/11 09:00:11;;;;;;;9.13;3.70;;;;;;;;;;4989581;28;20948;-69
2023/08/11 09:02:36;;;;;;;5.72;4.25;;;;;;;;;;4991577;28;20852;-69
2023/08/11 09:05:02;;;;;;;6.25;3.80;;;;;;;;;;4996666;28;20193;-68
2023/08/11 09:07:27;;;;;;;5.55;3.63;;;;;;;;;;4992582;28;20301;-68
2023/08/11 09:09:52;;;;;;;6.15;3.72;;;;;;;;;;4992017;28;20216;-68
2023/08/11 09:12:18;;;;;;;5.73;3.80;;;;;;;;;;4991265;28;20269;-69
2023/08/11 09:14:43;;;;;;;4.82;3.50;;;;;;;;;;4996717;28;20656;-69
2023/08/11 09:17:08;;;;;;;7.00;3.03;;;;;;;;;;4991476;28;20241;-69
2023/08/11 09:19:34;;;;;;;4.90;2.92;;;;;;;;;;4991260;28;20444;-69
2023/08/11 09:21:59;;;;;;;5.38;3.20;;;;;;;;;;4988761;28;20190;-69
2023/08/11 09:24:24;;;;;;;6.20;3.20;;;;;;;;;;4991477;28;20194;-69
2023/08/11 09:26:50;;;;;;;9.57;3.72;;;;;;;;;;4994582;28;20427;-69
2023/08/11 09:29:17;;;;;;;4.50;2.80;;;;;;;;;;4990752;28;20191;-69
2023/08/11 09:31:45;;;;;;;4.90;2.78;;;;;;;;;;4990459;28;21367;-69
2023/08/11 09:34:16;;;;;;;6.85;3.13;;;;;;;;;;5009694;28;20202;-70
2023/08/11 09:36:42;;;;;;;5.18;3.20;;;;;;;;;;4991922;28;20190;-70
2023/08/11 09:39:08;;;;;;;6.10;2.47;;;;;;;;;;4990788;28;20178;-69
2023/08/11 09:41:38;;;;;;;4.65;2.67;;;;;;;;;;4989629;28;20699;-70
2023/08/11 09:44:04;;;;;;;3.60;2.72;;;;;;;;;;4992626;28;20213;-69
2023/08/11 09:46:29;;;;;;;4.68;2.47;;;;;;;;;;4989998;28;20784;-69
2023/08/11 09:48:54;;;;;;;5.57;3.10;;;;;;;;;;4990454;28;20991;-69
2023/08/11 09:51:19;;;;;;;4.18;3.17;;;;;;;;;;4989994;28;20463;-69
2023/08/11 09:53:45;;;;;;;4.93;3.28;;;;;;;;;;4991874;28;20178;-70
2023/08/11 09:56:15;;;;;;;9.18;3.20;;;;;;;;;;4990443;28;20632;-70
2023/08/11 09:58:41;;;;;;;5.05;2.92;;;;;;;;;;4990221;28;20265;-70
2023/08/11 10:01:07;;;;;;;3.28;2.47;;;;;;;;;;4991736;28;20279;-71
2023/08/11 10:03:36;;;;;;;3.78;2.70;;;;;;;;;;4989619;28;20198;-69
2023/08/11 10:06:03;;;;;;;3.95;2.97;;;;;;;;;;4992533;28;20212;-69
2023/08/11 10:08:29;;;;;;;4.78;2.63;;;;;;;;;;5008142;28;20214;-69
2023/08/11 10:10:54;;;;;;;3.40;2.20;;;;;;;;;;5006997;28;20217;-69
2023/08/11 10:13:25;;;;;;;4.43;3.37;;;;;;;;;;5007594;28;20182;-69
2023/08/11 10:15:51;;;;;;;5.10;3.30;;;;;;;;;;5007054;28;20424;-71
2023/08/11 10:18:17;;;;;;;4.25;2.75;;;;;;;;;;5008211;28;20197;-69
2023/08/11 10:20:42;;;;;;;4.50;3.47;;;;;;;;;;5007618;28;20222;-69
2023/08/11 10:23:08;;;;;;;4.43;3.22;;;;;;;;;;5006670;28;20190;-70
2023/08/11 10:25:34;;;;;;;4.13;3.28;;;;;;;;;;5008261;28;20222;-70
2023/08/11 10:28:00;;;;;;;4.28;3.45;;;;;;;;;;5006829;28;20656;-70
2023/08/11 10:30:25;;;;;;;3.97;3.17;;;;;;;;;;5007579;28;20260;-70
2023/08/11 10:32:56;;;;;;;7.25;3.72;;;;;;;;;;5008211;28;20266;-70
2023/08/11 10:35:26;;;;;;;6.38;2.78;;;;;;;;;;5005975;28;20607;-70
2023/08/11 10:37:57;;;;;;;3.53;2.97;;;;;;;;;;5002694;28;20177;-70
2023/08/11 10:40:23;;;;;;;4.75;3.08;;;;;;;;;;4991181;28;20214;-70
2023/08/11 10:42:50;;;;;;;5.63;3.67;;;;;;;;;;4994275;28;20203;-70
2023/08/11 10:45:18;;;;;;;6.20;3.58;;;;;;;;;;4992555;28;20569;-70
2023/08/11 10:47:50;;;;;;;6.40;3.95;;;;;;;;;;4989615;28;20828;-71
2023/08/11 10:50:16;;;;;;;5.07;3.05;;;;;;;;;;4989300;28;20299;-70
2023/08/11 10:52:42;;;;;;;9.10;4.05;;;;;;;;;;4989083;28;20309;-69
2023/08/11 10:55:07;;;;;;;5.50;4.50;;;;;;;;;;4991529;28;20668;-70
2023/08/11 10:57:34;;;;;;;10.10;4.90;;;;;;;;;;4989275;28;20572;-70
2023/08/11 10:59:59;;;;;;;6.75;4.80;;;;;;;;;;4988922;28;20202;-70
2023/08/11 11:02:24;;;;;;;5.45;3.70;;;;;;;;;;4993472;28;20640;-70
2023/08/11 11:04:51;;;;;;;6.63;4.22;;;;;;;;;;4994574;28;20655;-71
2023/08/11 11:07:16;;;;;;;7.15;4.13;;;;;;;;;;4988437;28;20308;-70
2023/08/11 11:09:42;;;;;;;5.95;3.72;;;;;;;;;;4986991;28;20206;-70
2023/08/11 11:12:07;;;;;;;5.85;4.47;;;;;;;;;;4989398;28;20213;-71
2023/08/11 11:14:32;;;;;;;6.00;3.43;;;;;;;;;;4989973;28;20193;-69
2023/08/11 11:16:58;;;;;;;6.23;3.80;;;;;;;;;;4988759;28;20419;-70
2023/08/11 11:19:24;;;;;;;6.43;3.25;;;;;;;;;;4988020;28;20434;-70
2023/08/11 11:21:49;;;;;;;6.83;4.50;;;;;;;;;;4988545;28;20178;-70
2023/08/11 11:24:15;;;;;;;7.25;4.63;;;;;;;;;;4987769;28;20423;-70
2023/08/11 11:26:42;;;;;;;9.15;4.38;;;;;;;;;;4992889;28;20233;-70
2023/08/11 11:29:07;;;;;;;6.10;3.33;;;;;;;;;;4988012;28;20190;-70
2023/08/11 11:31:33;;;;;;;7.37;3.90;;;;;;;;;;4989012;28;20209;-70
2023/08/11 11:33:59;;;;;;;5.68;3.50;;;;;;;;;;4989378;28;20547;-70
2023/08/11 11:36:24;;;;;;;4.00;3.20;;;;;;;;;;4993752;28;20626;-70
2023/08/11 11:38:50;;;;;;;5.40;3.40;;;;;;;;;;4992741;28;21120;-71
2023/08/11 11:41:17;;;;;;;7.80;4.35;;;;;;;;;;4992270;28;20798;-70
2023/08/11 11:43:43;;;;;;;7.60;3.90;;;;;;;;;;4992919;28;21435;-70
2023/08/11 11:46:14;;;;;;;3.38;3.08;;;;;;;;;;4997226;28;20186;-71
2023/08/11 11:48:43;;;;;;;4.05;2.88;;;;;;;;;;4995824;28;20661;-70
2023/08/11 11:51:09;;;;;;;6.35;3.22;;;;;;;;;;5005595;28;20224;-70
2023/08/11 11:53:35;;;;;;;3.90;2.63;;;;;;;;;;4993890;28;20558;-70
2023/08/11 11:56:00;;;;;;;5.65;3.65;;;;;;;;;;4992059;28;20215;-71
2023/08/11 11:58:26;;;;;;;4.68;2.90;;;;;;;;;;4992191;28;20277;-70
2023/08/11 12:00:51;;;;;;;3.70;2.67;;;;;;;;;;4990612;28;20818;-70
2023/08/11 12:03:16;;;;;;;4.17;2.63;;;;;;;;;;4991419;28;20496;-70
2023/08/11 12:05:42;;;;;;;3.20;2.60;;;;;;;;;;4995662;28;20427;-72
2023/08/11 12:08:37;;;;;;;4.15;2.90;;;;;;;;;;4992013;28;20186;-71
2023/08/11 12:11:03;;;;;;;4.97;2.58;;;;;;;;;;4989697;28;20590;-70
2023/08/11 12:13:31;;;;;;;3.35;2.30;;;;;;;;;;4993519;28;20182;-71
2023/08/11 12:15:57;;;;;;;5.43;1.95;;;;;;;;;;4991559;28;20224;-71
2023/08/11 12:18:22;;;;;;;4.63;2.35;;;;;;;;;;4990785;28;20645;-71
2023/08/11 12:20:48;;;;;;;3.03;2.30;;;;;;;;;;4991167;28;20217;-71
2023/08/11 12:23:13;;;;;;;4.22;2.22;;;;;;;;;;4991107;28;20432;-71
2023/08/11 12:25:38;;;;;;;6.13;2.10;;;;;;;;;;4991966;28;20224;-70
2023/08/11 12:28:04;;;;;;;2.40;1.90;;;;;;;;;;4996788;28;20629;-71
2023/08/11 12:30:30;;;;;;;3.35;1.80;;;;;;;;;;4989703;28;20471;-71
2023/08/11 12:32:55;;;;;;;2.90;1.85;;;;;;;;;;4991603;28;20210;-71
2023/08/11 12:35:20;;;;;;;4.13;2.00;;;;;;;;;;4991411;28;20217;-70
2023/08/11 12:37:46;;;;;;;3.47;2.33;;;;;;;;;;4994095;28;20183;-70
2023/08/11 12:40:12;;;;;;;3.05;2.67;;;;;;;;;;4992269;28;20213;-70
2023/08/11 12:42:37;;;;;;;2.70;2.38;;;;;;;;;;4992807;28;20209;-70
2023/08/11 12:45:03;;;;;;;3.15;2.40;;;;;;;;;;4989492;28;20345;-71
2023/08/11 12:47:28;;;;;;;3.30;3.00;;;;;;;;;;4994797;28;20272;-71
2023/08/11 12:49:53;;;;;;;4.80;3.20;;;;;;;;;;4993222;28;20218;-70
2023/08/11 12:52:19;;;;;;;4.77;2.90;;;;;;;;;;4993734;28;20435;-71
2023/08/11 12:54:44;;;;;;;6.13;3.50;;;;;;;;;;4990960;28;20423;-70
2023/08/11 12:57:09;;;;;;;7.57;3.03;;;;;;;;;;4991051;28;21340;-71
2023/08/11 12:59:35;;;;;;;3.90;2.60;;;;;;;;;;4991518;28;20436;-71
2023/08/11 13:02:01;;;;;;;3.58;2.70;;;;;;;;;;4988875;28;20451;-71
2023/08/11 13:04:26;;;;;;;4.72;3.67;;;;;;;;;;4994145;28;20197;-70
2023/08/11 13:06:51;;;;;;;5.47;3.13;;;;;;;;;;4995869;28;20787;-71
2023/08/11 13:09:17;;;;;;;5.13;3.97;;;;;;;;;;5010011;28;21078;-71
2023/08/11 13:11:43;;;;;;;4.72;3.80;;;;;;;;;;5008512;28;20455;-71
2023/08/11 13:14:09;;;;;;;7.60;3.88;;;;;;;;;;5010529;28;20515;-71
2023/08/11 13:16:35;;;;;;;4.38;3.50;;;;;;;;;;5011538;28;20187;-71
2023/08/11 13:19:00;;;;;;;5.75;4.15;;;;;;;;;;5009847;28;20190;-71
2023/08/11 13:21:25;;;;;;;9.52;3.67;;;;;;;;;;5008844;28;20586;-70
2023/08/11 13:23:50;;;;;;;6.13;4.60;;;;;;;;;;4991729;28;20269;-71
2023/08/11 13:26:16;;;;;;;4.67;4.20;;;;;;;;;;4995974;28;20683;-71
2023/08/11 13:28:41;;;;;;;4.15;3.50;;;;;;;;;;4990607;28;20229;-71
2023/08/11 13:31:06;;;;;;;6.60;4.25;;;;;;;;;;4991625;28;21078;-71
2023/08/11 13:33:31;;;;;;;5.20;3.47;;;;;;;;;;4991617;28;20182;-70
2023/08/11 13:35:56;;;;;;;7.15;3.95;;;;;;;;;;4991165;28;20556;-71
2023/08/11 13:38:22;;;;;;;4.53;3.47;;;;;;;;;;4992568;28;20186;-71
2023/08/11 13:40:48;;;;;;;6.15;3.65;;;;;;;;;;4991490;28;20491;-70
2023/08/11 13:43:14;;;;;;;3.83;2.70;;;;;;;;;;4994362;28;20186;-71
2023/08/11 13:45:39;;;;;;;4.50;2.75;;;;;;;;;;4989518;28;20214;-70
2023/08/11 13:48:04;;;;;;;6.37;3.03;;;;;;;;;;4992348;28;20189;-70
2023/08/11 13:50:29;;;;;;;5.97;3.05;;;;;;;;;;4991009;28;20460;-70
2023/08/11 13:52:55;;;;;;;7.85;2.85;;;;;;;;;;4992199;28;20454;-71
2023/08/11 13:55:20;;;;;;;8.33;3.67;;;;;;;;;;4991584;28;20716;-71
2023/08/11 13:57:47;;;;;;;9.13;3.20;;;;;;;;;;4990057;28;21498;-70
2023/08/11 14:00:13;;;;;;;6.13;3.00;;;;;;;;;;4993416;28;20475;-71
2023/08/11 14:02:38;;;;;;;6.93;2.80;;;;;;;;;;4995594;28;20308;-71
2023/08/11 14:05:03;;;;;;;6.23;2.63;;;;;;;;;;4992209;28;20656;-71
2023/08/11 14:07:28;;;;;;;7.38;3.10;;;;;;;;;;4990051;28;20271;-70
2023/08/11 14:09:54;;;;;;;7.77;2.90;;;;;;;;;;4990157;28;20244;-70
2023/08/11 14:12:21;;;;;;;10.80;2.70;;;;;;;;;;4993084;28;20510;-70
2023/08/11 14:14:46;;;;;;;9.15;2.65;;;;;;;;;;4996957;28;20444;-69
2023/08/11 14:17:11;;;;;;;4.45;2.30;;;;;;;;;;4991348;28;20189;-69
2023/08/11 14:19:37;;;;;;;5.18;2.50;;;;;;;;;;4989749;28;20210;-70
2023/08/11 14:22:02;;;;;;;8.32;2.40;;;;;;;;;;4988925;28;20554;-69